sensor_id;sensor_type;location;lat;lon;timestamp;pressure;altitude;pressure_sealevel;temperature;humidity
78488;BME280;67885;49.758;9.582;2023-09-19T00:01:32;98658.50;;;22.23;51.84
78488;BME280;67885;49.758;9.582;2023-09-19T00:04:01;98661.41;;;22.21;51.39
78488;BME280;67885;49.758;9.582;2023-09-19T00:06:28;98662.44;;;22.20;51.32
78488;BME280;67885;49.758;9.582;2023-09-19T00:08:57;98669.72;;;22.20;51.60
78488;BME280;67885;49.758;9.582;2023-09-19T00:11:25;98673.66;;;22.17;51.33
78488;BME280;67885;49.758;9.582;2023-09-19T00:13:52;98671.00;;;22.11;51.18
78488;BME280;67885;49.758;9.582;2023-09-19T00:16:19;98684.25;;;22.12;51.31
78488;BME280;67885;49.758;9.582;2023-09-19T00:18:46;98653.81;;;21.78;51.82
78488;BME280;67885;49.758;9.582;2023-09-19T00:21:15;98682.81;;;22.03;52.31
78488;BME280;67885;49.758;9.582;2023-09-19T00:23:42;98683.03;;;22.01;52.21
78488;BME280;67885;49.758;9.582;2023-09-19T00:26:08;98672.06;;;21.89;52.91
78488;BME280;67885;49.758;9.582;2023-09-19T00:28:35;98684.31;;;21.92;52.88
78488;BME280;67885;49.758;9.582;2023-09-19T00:31:02;98686.81;;;21.87;53.35
78488;BME280;67885;49.758;9.582;2023-09-19T00:33:30;98677.69;;;21.81;52.92
78488;BME280;67885;49.758;9.582;2023-09-19T00:35:57;98643.06;;;21.58;53.36
78488;BME280;67885;49.758;9.582;2023-09-19T00:38:26;98681.41;;;21.80;53.22
78488;BME280;67885;49.758;9.582;2023-09-19T00:40:54;98689.50;;;21.80;52.93
78488;BME280;67885;49.758;9.582;2023-09-19T00:43:22;98660.50;;;21.55;53.09
78488;BME280;67885;49.758;9.582;2023-09-19T00:45:51;98674.56;;;21.78;52.96
78488;BME280;67885;49.758;9.582;2023-09-19T00:48:19;98690.75;;;21.78;53.33
78488;BME280;67885;49.758;9.582;2023-09-19T00:50:48;98661.75;;;21.53;53.45
78488;BME280;67885;49.758;9.582;2023-09-19T00:53:18;98728.69;;;21.76;53.41
78488;BME280;67885;49.758;9.582;2023-09-19T00:55:49;98707.94;;;21.77;54.04
78488;BME280;67885;49.758;9.582;2023-09-19T00:58:17;98710.22;;;21.80;53.42
78488;BME280;67885;49.758;9.582;2023-09-19T01:00:44;98708.16;;;21.82;53.91
78488;BME280;67885;49.758;9.582;2023-09-19T01:03:11;98714.38;;;21.82;54.12
78488;BME280;67885;49.758;9.582;2023-09-19T01:05:39;98721.84;;;21.80;53.86
78488;BME280;67885;49.758;9.582;2023-09-19T01:08:06;98699.03;;;21.69;54.50
78488;BME280;67885;49.758;9.582;2023-09-19T01:10:33;98727.63;;;21.84;53.31
78488;BME280;67885;49.758;9.582;2023-09-19T01:13:09;98724.94;;;21.84;53.79
78488;BME280;67885;49.758;9.582;2023-09-19T01:15:49;98723.31;;;21.83;54.19
78488;BME280;67885;49.758;9.582;2023-09-19T01:18:27;98724.34;;;21.82;53.96
78488;BME280;67885;49.758;9.582;2023-09-19T01:21:06;98713.75;;;21.73;53.50
78488;BME280;67885;49.758;9.582;2023-09-19T01:24:01;98716.47;;;21.73;53.64
78488;BME280;67885;49.758;9.582;2023-09-19T01:26:56;98722.66;;;21.74;54.40
78488;BME280;67885;49.758;9.582;2023-09-19T01:29:38;98721.84;;;21.80;53.63
78488;BME280;67885;49.758;9.582;2023-09-19T01:32:08;98719.16;;;21.73;53.47
78488;BME280;67885;49.758;9.582;2023-09-19T01:34:45;98731.19;;;21.78;53.96
78488;BME280;67885;49.758;9.582;2023-09-19T01:37:14;98729.50;;;21.77;53.65
78488;BME280;67885;49.758;9.582;2023-09-19T01:39:46;98726.00;;;21.76;53.79
78488;BME280;67885;49.758;9.582;2023-09-19T01:42:24;98729.50;;;21.77;54.13
78488;BME280;67885;49.758;9.582;2023-09-19T01:45:02;98737.59;;;21.77;53.86
78488;BME280;67885;49.758;9.582;2023-09-19T01:47:34;98739.69;;;21.75;53.99
78488;BME280;67885;49.758;9.582;2023-09-19T01:50:11;98735.75;;;21.64;55.06
78488;BME280;67885;49.758;9.582;2023-09-19T01:52:49;98741.75;;;21.72;54.55
78488;BME280;67885;49.758;9.582;2023-09-19T01:55:21;98700.25;;;21.47;54.88
78488;BME280;67885;49.758;9.582;2023-09-19T01:57:55;98717.25;;;21.54;55.13
78488;BME280;67885;49.758;9.582;2023-09-19T02:00:26;98743.63;;;21.72;55.51
78488;BME280;67885;49.758;9.582;2023-09-19T02:02:58;98743.19;;;21.75;54.72
78488;BME280;67885;49.758;9.582;2023-09-19T02:05:26;98745.47;;;21.78;54.47
78488;BME280;67885;49.758;9.582;2023-09-19T02:07:54;98738.63;;;21.76;55.32
78488;BME280;67885;49.758;9.582;2023-09-19T02:10:22;98736.34;;;21.72;54.72
78488;BME280;67885;49.758;9.582;2023-09-19T02:12:49;98738.22;;;21.72;55.30
78488;BME280;67885;49.758;9.582;2023-09-19T02:15:16;98721.84;;;21.60;55.78
78488;BME280;67885;49.758;9.582;2023-09-19T02:17:43;98709.19;;;21.54;55.55
78488;BME280;67885;49.758;9.582;2023-09-19T02:20:13;98737.38;;;21.71;55.10
78488;BME280;67885;49.758;9.582;2023-09-19T02:22:41;98743.84;;;21.70;55.64
78488;BME280;67885;49.758;9.582;2023-09-19T02:25:08;98760.19;;;21.69;55.52
78488;BME280;67885;49.758;9.582;2023-09-19T02:27:34;98767.88;;;21.65;55.81
78488;BME280;67885;49.758;9.582;2023-09-19T02:30:03;98716.56;;;21.25;56.65
78488;BME280;67885;49.758;9.582;2023-09-19T02:32:31;98776.53;;;21.54;57.19
78488;BME280;67885;49.758;9.582;2023-09-19T02:35:01;98777.94;;;21.50;58.11
78488;BME280;67885;49.758;9.582;2023-09-19T02:37:29;98776.69;;;21.46;57.95
78488;BME280;67885;49.758;9.582;2023-09-19T02:39:56;98712.38;;;21.02;58.62
78488;BME280;67885;49.758;9.582;2023-09-19T02:42:22;98726.84;;;20.88;59.51
78488;BME280;67885;49.758;9.582;2023-09-19T02:44:49;98754.94;;;21.27;58.93
78488;BME280;67885;49.758;9.582;2023-09-19T02:47:16;98736.44;;;21.11;59.41
78488;BME280;67885;49.758;9.582;2023-09-19T02:49:42;98784.56;;;21.34;59.56
78488;BME280;67885;49.758;9.582;2023-09-19T02:52:09;98780.22;;;21.33;59.58
78488;BME280;67885;49.758;9.582;2023-09-19T02:54:37;98792.00;;;21.25;59.22
78488;BME280;67885;49.758;9.582;2023-09-19T02:57:04;98782.06;;;21.32;58.97
78488;BME280;67885;49.758;9.582;2023-09-19T02:59:32;98776.28;;;21.35;59.42
78488;BME280;67885;49.758;9.582;2023-09-19T03:02:02;98774.81;;;21.33;59.49
78488;BME280;67885;49.758;9.582;2023-09-19T03:04:30;98782.31;;;21.44;58.70
78488;BME280;67885;49.758;9.582;2023-09-19T03:06:56;98789.16;;;21.47;59.84
78488;BME280;67885;49.758;9.582;2023-09-19T03:09:25;98777.50;;;21.26;58.83
78488;BME280;67885;49.758;9.582;2023-09-19T03:11:54;98752.00;;;21.22;59.19
78488;BME280;67885;49.758;9.582;2023-09-19T03:14:21;98698.25;;;20.87;59.11
78488;BME280;67885;49.758;9.582;2023-09-19T03:16:49;98801.16;;;21.44;59.24
78488;BME280;67885;49.758;9.582;2023-09-19T03:19:15;98799.66;;;21.28;59.49
78488;BME280;67885;49.758;9.582;2023-09-19T03:21:42;98806.31;;;21.39;58.99
78488;BME280;67885;49.758;9.582;2023-09-19T03:24:09;98692.50;;;20.55;59.28
78488;BME280;67885;49.758;9.582;2023-09-19T03:26:36;98765.59;;;21.00;59.34
78488;BME280;67885;49.758;9.582;2023-09-19T03:29:05;98749.34;;;20.74;59.29
78488;BME280;67885;49.758;9.582;2023-09-19T03:31:34;98738.06;;;20.57;59.36
78488;BME280;67885;49.758;9.582;2023-09-19T03:34:03;98807.69;;;21.08;59.62
78488;BME280;67885;49.758;9.582;2023-09-19T03:36:30;98806.44;;;21.04;60.38
78488;BME280;67885;49.758;9.582;2023-09-19T03:38:57;98805.56;;;21.03;60.34
78488;BME280;67885;49.758;9.582;2023-09-19T03:41:23;98809.13;;;21.04;60.30
78488;BME280;67885;49.758;9.582;2023-09-19T03:43:50;98810.97;;;21.03;61.18
78488;BME280;67885;49.758;9.582;2023-09-19T03:46:18;98813.66;;;21.03;59.65
78488;BME280;67885;49.758;9.582;2023-09-19T03:48:45;98806.78;;;20.94;59.83
78488;BME280;67885;49.758;9.582;2023-09-19T03:51:11;98812.81;;;20.96;59.19
78488;BME280;67885;49.758;9.582;2023-09-19T03:53:38;98827.28;;;20.95;59.57
78488;BME280;67885;49.758;9.582;2023-09-19T03:56:05;98793.66;;;20.78;59.96
78488;BME280;67885;49.758;9.582;2023-09-19T03:58:31;98816.50;;;20.88;59.46
78488;BME280;67885;49.758;9.582;2023-09-19T04:01:00;98828.97;;;20.96;60.04
78488;BME280;67885;49.758;9.582;2023-09-19T04:03:28;98800.06;;;20.77;59.61
78488;BME280;67885;49.758;9.582;2023-09-19T04:06:00;98832.91;;;21.00;59.20
78488;BME280;67885;49.758;9.582;2023-09-19T04:08:27;98823.16;;;20.99;59.79
78488;BME280;67885;49.758;9.582;2023-09-19T04:10:55;98814.69;;;21.02;59.25
78488;BME280;67885;49.758;9.582;2023-09-19T04:13:22;98823.63;;;21.10;58.59
78488;BME280;67885;49.758;9.582;2023-09-19T04:15:48;98748.63;;;20.58;59.07
78488;BME280;67885;49.758;9.582;2023-09-19T04:18:15;98833.19;;;21.12;58.72
78488;BME280;67885;49.758;9.582;2023-09-19T04:20:48;98836.91;;;21.11;58.19
78488;BME280;67885;49.758;9.582;2023-09-19T04:23:15;98822.75;;;21.02;58.66
78488;BME280;67885;49.758;9.582;2023-09-19T04:25:42;98840.81;;;21.09;58.61
78488;BME280;67885;49.758;9.582;2023-09-19T04:28:09;98842.69;;;21.08;58.26
78488;BME280;67885;49.758;9.582;2023-09-19T04:30:36;98848.06;;;21.08;58.96
78488;BME280;67885;49.758;9.582;2023-09-19T04:33:03;98847.44;;;21.06;57.72
78488;BME280;67885;49.758;9.582;2023-09-19T04:35:30;98847.22;;;21.08;58.49
78488;BME280;67885;49.758;9.582;2023-09-19T04:37:58;98846.81;;;21.04;58.14
78488;BME280;67885;49.758;9.582;2023-09-19T04:40:25;98838.72;;;20.97;58.46
78488;BME280;67885;49.758;9.582;2023-09-19T04:42:56;98847.19;;;21.01;57.69
78488;BME280;67885;49.758;9.582;2023-09-19T04:45:22;98861.31;;;21.03;58.99
78488;BME280;67885;49.758;9.582;2023-09-19T04:47:49;98858.41;;;21.04;58.44
78488;BME280;67885;49.758;9.582;2023-09-19T04:50:16;98837.44;;;20.93;58.34
78488;BME280;67885;49.758;9.582;2023-09-19T04:52:43;98840.09;;;20.86;57.96
78488;BME280;67885;49.758;9.582;2023-09-19T04:55:12;98847.16;;;20.94;58.63
78488;BME280;67885;49.758;9.582;2023-09-19T04:57:42;98852.34;;;20.96;57.77
78488;BME280;67885;49.758;9.582;2023-09-19T05:00:11;98857.56;;;20.97;58.09
78488;BME280;67885;49.758;9.582;2023-09-19T05:02:40;98862.94;;;20.97;57.98
78488;BME280;67885;49.758;9.582;2023-09-19T05:05:08;98874.56;;;21.04;58.41
78488;BME280;67885;49.758;9.582;2023-09-19T05:07:35;98869.59;;;21.01;57.65
78488;BME280;67885;49.758;9.582;2023-09-19T05:10:02;98868.94;;;20.99;57.88
78488;BME280;67885;49.758;9.582;2023-09-19T05:12:33;98883.69;;;21.10;57.17
78488;BME280;67885;49.758;9.582;2023-09-19T05:15:00;98885.16;;;21.13;57.79
78488;BME280;67885;49.758;9.582;2023-09-19T05:17:29;98789.19;;;20.57;56.72
78488;BME280;67885;49.758;9.582;2023-09-19T05:19:55;98891.19;;;21.15;57.21
78488;BME280;67885;49.758;9.582;2023-09-19T05:22:22;98892.00;;;21.15;56.82
78488;BME280;67885;49.758;9.582;2023-09-19T05:24:50;98881.44;;;21.14;56.95
78488;BME280;67885;49.758;9.582;2023-09-19T05:27:18;98890.53;;;21.13;56.61
78488;BME280;67885;49.758;9.582;2023-09-19T05:29:47;98901.31;;;21.13;56.41
78488;BME280;67885;49.758;9.582;2023-09-19T05:32:14;98901.31;;;21.13;56.91
78488;BME280;67885;49.758;9.582;2023-09-19T05:34:41;98904.22;;;21.11;57.23
78488;BME280;67885;49.758;9.582;2023-09-19T05:37:08;98907.97;;;21.17;56.61
78488;BME280;67885;49.758;9.582;2023-09-19T05:39:34;98910.66;;;21.17;57.01
78488;BME280;67885;49.758;9.582;2023-09-19T05:42:03;98910.66;;;21.17;57.02
78488;BME280;67885;49.758;9.582;2023-09-19T05:44:30;98877.41;;;20.96;57.04
78488;BME280;67885;49.758;9.582;2023-09-19T05:46:59;98919.75;;;21.16;56.50
78488;BME280;67885;49.758;9.582;2023-09-19T05:49:26;98902.75;;;21.09;57.13
78488;BME280;67885;49.758;9.582;2023-09-19T05:51:53;98808.94;;;20.42;56.99
78488;BME280;67885;49.758;9.582;2023-09-19T05:54:22;98931.34;;;21.10;57.09
78488;BME280;67885;49.758;9.582;2023-09-19T05:56:48;98935.72;;;21.11;56.56
78488;BME280;67885;49.758;9.582;2023-09-19T05:59:18;98935.06;;;21.09;56.67
78488;BME280;67885;49.758;9.582;2023-09-19T06:01:45;98929.03;;;21.06;56.70
78488;BME280;67885;49.758;9.582;2023-09-19T06:04:13;98940.84;;;21.05;56.56
78488;BME280;67885;49.758;9.582;2023-09-19T06:06:40;98927.97;;;21.01;56.93
78488;BME280;67885;49.758;9.582;2023-09-19T06:09:07;98913.00;;;20.92;57.15
78488;BME280;67885;49.758;9.582;2023-09-19T06:11:34;98930.66;;;21.01;56.66
78488;BME280;67885;49.758;9.582;2023-09-19T06:14:01;98929.19;;;20.98;56.91
78488;BME280;67885;49.758;9.582;2023-09-19T06:16:28;98916.53;;;20.92;57.47
78488;BME280;67885;49.758;9.582;2023-09-19T06:18:55;98936.00;;;20.94;57.30
78488;BME280;67885;49.758;9.582;2023-09-19T06:21:23;98931.84;;;20.92;55.60
78488;BME280;67885;49.758;9.582;2023-09-19T06:23:50;98927.59;;;20.76;56.34
78488;BME280;67885;49.758;9.582;2023-09-19T06:26:17;98923.84;;;20.77;56.40
78488;BME280;67885;49.758;9.582;2023-09-19T06:28:44;98935.91;;;20.81;56.41
78488;BME280;67885;49.758;9.582;2023-09-19T06:31:12;98948.47;;;20.74;55.94
78488;BME280;67885;49.758;9.582;2023-09-19T06:33:39;98941.81;;;20.69;56.58
78488;BME280;67885;49.758;9.582;2023-09-19T06:36:06;98932.41;;;20.59;56.05
78488;BME280;67885;49.758;9.582;2023-09-19T06:38:34;98946.69;;;20.59;55.44
78488;BME280;67885;49.758;9.582;2023-09-19T06:41:02;98948.53;;;20.59;56.02
78488;BME280;67885;49.758;9.582;2023-09-19T06:43:30;98960.72;;;20.54;55.75
78488;BME280;67885;49.758;9.582;2023-09-19T06:45:58;98956.53;;;20.52;55.29
78488;BME280;67885;49.758;9.582;2023-09-19T06:48:25;98948.22;;;20.47;55.76
78488;BME280;67885;49.758;9.582;2023-09-19T06:50:53;98956.28;;;20.47;56.61
78488;BME280;67885;49.758;9.582;2023-09-19T06:53:20;98952.78;;;20.46;56.16
78488;BME280;67885;49.758;9.582;2023-09-19T06:55:50;98958.69;;;20.57;55.65
78488;BME280;67885;49.758;9.582;2023-09-19T06:58:17;98960.78;;;20.61;55.47
78488;BME280;67885;49.758;9.582;2023-09-19T07:00:44;98973.63;;;20.66;55.00
78488;BME280;67885;49.758;9.582;2023-09-19T07:03:13;98998.50;;;20.68;55.03
78488;BME280;67885;49.758;9.582;2023-09-19T07:05:41;98980.78;;;20.74;55.36
78488;BME280;67885;49.758;9.582;2023-09-19T07:08:09;98986.41;;;20.79;54.91
78488;BME280;67885;49.758;9.582;2023-09-19T07:10:38;98993.31;;;20.88;56.31
78488;BME280;67885;49.758;9.582;2023-09-19T07:13:08;98989.84;;;20.94;54.07
78488;BME280;67885;49.758;9.582;2023-09-19T07:15:37;98994.06;;;21.03;54.62
78488;BME280;67885;49.758;9.582;2023-09-19T07:18:07;98997.66;;;21.11;55.61
78488;BME280;67885;49.758;9.582;2023-09-19T07:20:36;99012.78;;;21.18;53.52
78488;BME280;67885;49.758;9.582;2023-09-19T07:23:04;98989.16;;;21.14;52.90
78488;BME280;67885;49.758;9.582;2023-09-19T07:25:31;99007.47;;;21.25;52.82
78488;BME280;67885;49.758;9.582;2023-09-19T07:27:58;99009.34;;;21.25;53.86
78488;BME280;67885;49.758;9.582;2023-09-19T07:30:27;99016.41;;;21.32;54.70
78488;BME280;67885;49.758;9.582;2023-09-19T07:32:54;99025.59;;;21.38;53.17
78488;BME280;67885;49.758;9.582;2023-09-19T07:35:21;99023.97;;;21.44;54.20
78488;BME280;67885;49.758;9.582;2023-09-19T07:37:48;99023.75;;;21.45;53.31
78488;BME280;67885;49.758;9.582;2023-09-19T07:40:17;99012.06;;;21.31;52.83
78488;BME280;67885;49.758;9.582;2023-09-19T07:42:44;99041.66;;;21.53;53.31
78488;BME280;67885;49.758;9.582;2023-09-19T07:45:12;99038.28;;;21.51;52.82
78488;BME280;67885;49.758;9.582;2023-09-19T07:47:44;99036.44;;;21.51;52.99
78488;BME280;67885;49.758;9.582;2023-09-19T07:50:12;99037.22;;;21.45;52.51
78488;BME280;67885;49.758;9.582;2023-09-19T07:52:39;99048.03;;;21.52;53.83
78488;BME280;67885;49.758;9.582;2023-09-19T07:55:06;99051.38;;;21.54;52.58
78488;BME280;67885;49.758;9.582;2023-09-19T07:57:36;99033.84;;;21.36;52.84
78488;BME280;67885;49.758;9.582;2023-09-19T08:00:04;99059.97;;;21.64;52.28
78488;BME280;67885;49.758;9.582;2023-09-19T08:02:34;99065.59;;;21.69;52.18
78488;BME280;67885;49.758;9.582;2023-09-19T08:05:02;99064.56;;;21.70;51.06
78488;BME280;67885;49.758;9.582;2023-09-19T08:07:31;99066.41;;;21.70;50.77
78488;BME280;67885;49.758;9.582;2023-09-19T08:09:58;99072.84;;;21.69;50.34
78488;BME280;67885;49.758;9.582;2023-09-19T08:12:24;99067.84;;;21.66;52.00
78488;BME280;67885;49.758;9.582;2023-09-19T08:14:52;99073.72;;;21.76;49.82
78488;BME280;67885;49.758;9.582;2023-09-19T08:17:18;99067.69;;;21.74;51.08
78488;BME280;67885;49.758;9.582;2023-09-19T08:19:45;99084.34;;;21.84;51.87
78488;BME280;67885;49.758;9.582;2023-09-19T08:22:13;99084.38;;;21.91;50.29
78488;BME280;67885;49.758;9.582;2023-09-19T08:24:42;99085.84;;;21.94;51.44
78488;BME280;67885;49.758;9.582;2023-09-19T08:27:09;99084.00;;;22.01;51.35
78488;BME280;67885;49.758;9.582;2023-09-19T08:29:38;99089.84;;;22.04;50.64
78488;BME280;67885;49.758;9.582;2023-09-19T08:32:04;99085.50;;;22.10;51.13
78488;BME280;67885;49.758;9.582;2023-09-19T08:34:31;99087.78;;;22.13;50.32
78488;BME280;67885;49.758;9.582;2023-09-19T08:36:59;99101.72;;;22.17;50.87
78488;BME280;67885;49.758;9.582;2023-09-19T08:39:27;99079.97;;;22.25;51.03
78488;BME280;67885;49.758;9.582;2023-09-19T08:41:59;99083.06;;;22.29;50.07
78488;BME280;67885;49.758;9.582;2023-09-19T08:44:26;99081.47;;;22.34;48.18
78488;BME280;67885;49.758;9.582;2023-09-19T08:47:01;99066.47;;;22.25;48.05
78488;BME280;67885;49.758;9.582;2023-09-19T08:49:38;99086.47;;;22.37;48.45
78488;BME280;67885;49.758;9.582;2023-09-19T08:52:19;99095.19;;;22.39;48.51
78488;BME280;67885;49.758;9.582;2023-09-19T08:54:52;99099.97;;;22.37;45.61
78488;BME280;67885;49.758;9.582;2023-09-19T08:57:19;99090.97;;;22.30;46.22
78488;BME280;67885;49.758;9.582;2023-09-19T08:59:48;99094.91;;;22.28;46.88
78488;BME280;67885;49.758;9.582;2023-09-19T09:02:16;99096.75;;;22.27;46.26
78488;BME280;67885;49.758;9.582;2023-09-19T09:04:45;99101.19;;;22.35;46.49
78488;BME280;67885;49.758;9.582;2023-09-19T09:07:13;99101.22;;;22.42;47.62
78488;BME280;67885;49.758;9.582;2023-09-19T09:09:42;99088.38;;;22.44;46.08
78488;BME280;67885;49.758;9.582;2023-09-19T09:12:13;99098.13;;;22.51;45.87
78488;BME280;67885;49.758;9.582;2023-09-19T09:14:45;99062.94;;;22.31;45.45
78488;BME280;67885;49.758;9.582;2023-09-19T09:17:15;99098.16;;;22.58;46.05
78488;BME280;67885;49.758;9.582;2023-09-19T09:19:45;99053.66;;;22.40;45.63
78488;BME280;67885;49.758;9.582;2023-09-19T09:22:12;99062.78;;;22.39;45.40
78488;BME280;67885;49.758;9.582;2023-09-19T09:24:51;99093.78;;;22.57;45.11
78488;BME280;67885;49.758;9.582;2023-09-19T09:27:20;99086.94;;;22.61;45.41
78488;BME280;67885;49.758;9.582;2023-09-19T09:29:50;99091.94;;;22.64;45.27
78488;BME280;67885;49.758;9.582;2023-09-19T09:32:22;99103.16;;;22.68;44.53
78488;BME280;67885;49.758;9.582;2023-09-19T09:34:51;99078.41;;;22.51;45.40
78488;BME280;67885;49.758;9.582;2023-09-19T09:37:19;99096.31;;;22.72;46.78
78488;BME280;67885;49.758;9.582;2023-09-19T09:39:51;99096.75;;;22.82;45.26
78488;BME280;67885;49.758;9.582;2023-09-19T09:42:31;99101.94;;;22.90;46.39
78488;BME280;67885;49.758;9.582;2023-09-19T09:45:17;99083.03;;;22.90;44.18
78488;BME280;67885;49.758;9.582;2023-09-19T09:50:26;99103.47;;;23.13;44.27
78488;BME280;67885;49.758;9.582;2023-09-19T09:53:19;99100.56;;;23.15;42.48
78488;BME280;67885;49.758;9.582;2023-09-19T09:56:02;99099.09;;;23.19;43.13
78488;BME280;67885;49.758;9.582;2023-09-19T09:58:34;99097.59;;;23.10;43.36
78488;BME280;67885;49.758;9.582;2023-09-19T10:01:03;99083.88;;;23.11;41.48
78488;BME280;67885;49.758;9.582;2023-09-19T10:03:35;99103.69;;;23.25;42.26
78488;BME280;67885;49.758;9.582;2023-09-19T10:06:08;99107.19;;;23.26;40.89
78488;BME280;67885;49.758;9.582;2023-09-19T10:09:00;99104.28;;;23.20;40.14
78488;BME280;67885;49.758;9.582;2023-09-19T10:11:41;99098.88;;;23.20;40.97
78488;BME280;67885;49.758;9.582;2023-09-19T10:14:11;99091.81;;;23.26;40.05
78488;BME280;67885;49.758;9.582;2023-09-19T10:16:41;99099.31;;;23.31;41.00
78488;BME280;67885;49.758;9.582;2023-09-19T10:19:16;99105.53;;;23.31;39.98
78488;BME280;67885;49.758;9.582;2023-09-19T10:21:50;99102.00;;;23.31;41.29
78488;BME280;67885;49.758;9.582;2023-09-19T10:24:17;99057.94;;;23.03;41.37
78488;BME280;67885;49.758;9.582;2023-09-19T10:26:45;99108.66;;;23.42;40.50
78488;BME280;67885;49.758;9.582;2023-09-19T10:29:14;99109.06;;;23.45;40.46
78488;BME280;67885;49.758;9.582;2023-09-19T10:31:42;99110.50;;;23.48;39.51
78488;BME280;67885;49.758;9.582;2023-09-19T10:34:14;99107.19;;;23.46;39.89
78488;BME280;67885;49.758;9.582;2023-09-19T10:36:44;99089.09;;;23.53;39.87
78488;BME280;67885;49.758;9.582;2023-09-19T10:39:15;99101.16;;;23.57;37.51
78488;BME280;67885;49.758;9.582;2023-09-19T10:41:50;99105.09;;;23.61;38.95
78488;BME280;67885;49.758;9.582;2023-09-19T10:44:24;99104.50;;;23.59;37.45
78488;BME280;67885;49.758;9.582;2023-09-19T10:46:52;99096.16;;;23.54;38.56
78488;BME280;67885;49.758;9.582;2023-09-19T10:49:20;99098.44;;;23.50;36.74
78488;BME280;67885;49.758;9.582;2023-09-19T10:51:49;99107.00;;;23.40;37.60
78488;BME280;67885;49.758;9.582;2023-09-19T10:54:19;99107.19;;;23.39;38.72
78488;BME280;67885;49.758;9.582;2023-09-19T10:56:50;99100.56;;;23.42;38.88
78488;BME280;67885;49.758;9.582;2023-09-19T10:59:19;99099.91;;;23.39;38.44
78488;BME280;67885;49.758;9.582;2023-09-19T11:01:49;99108.66;;;23.42;40.01
78488;BME280;67885;49.758;9.582;2023-09-19T11:04:22;99087.66;;;23.37;40.84
78488;BME280;67885;49.758;9.582;2023-09-19T11:07:00;99092.59;;;23.60;39.93
78488;BME280;67885;49.758;9.582;2023-09-19T11:09:43;99103.84;;;23.70;40.32
78488;BME280;67885;49.758;9.582;2023-09-19T11:12:11;99064.75;;;23.60;40.10
78488;BME280;67885;49.758;9.582;2023-09-19T11:14:40;99095.72;;;23.90;39.55
78488;BME280;67885;49.758;9.582;2023-09-19T11:20:25;99090.03;;;24.05;39.25
78488;BME280;67885;49.758;9.582;2023-09-19T11:23:20;99096.47;;;24.11;39.11
78488;BME280;67885;49.758;9.582;2023-09-19T11:25:51;99084.16;;;24.15;38.49
78488;BME280;67885;49.758;9.582;2023-09-19T11:28:33;99027.25;;;23.90;38.63
78488;BME280;67885;49.758;9.582;2023-09-19T11:34:39;99077.63;;;24.36;36.66
78488;BME280;67885;49.758;9.582;2023-09-19T11:40:11;99068.03;;;24.40;37.40
78488;BME280;67885;49.758;9.582;2023-09-19T11:42:43;99071.75;;;24.46;38.60
78488;BME280;67885;49.758;9.582;2023-09-19T11:48:18;99079.59;;;24.54;38.05
78488;BME280;67885;49.758;9.582;2023-09-19T11:50:45;99062.59;;;24.47;37.20
78488;BME280;67885;49.758;9.582;2023-09-19T11:53:13;99073.19;;;24.49;37.13
78488;BME280;67885;49.758;9.582;2023-09-19T11:55:44;99078.59;;;24.49;38.32
78488;BME280;67885;49.758;9.582;2023-09-19T11:58:15;99069.59;;;24.55;36.74
78488;BME280;67885;49.758;9.582;2023-09-19T12:00:44;99076.09;;;24.54;37.66
78488;BME280;67885;49.758;9.582;2023-09-19T12:03:12;99064.41;;;24.53;37.16
78488;BME280;67885;49.758;9.582;2023-09-19T12:05:40;99064.00;;;24.50;37.95
78488;BME280;67885;49.758;9.582;2023-09-19T12:08:07;99066.28;;;24.53;37.66
78488;BME280;67885;49.758;9.582;2023-09-19T12:10:45;99052.53;;;24.54;37.71
78488;BME280;67885;49.758;9.582;2023-09-19T12:13:16;99052.09;;;24.57;38.27
78488;BME280;67885;49.758;9.582;2023-09-19T12:15:43;99056.69;;;24.64;37.61
78488;BME280;67885;49.758;9.582;2023-09-19T12:18:25;99057.50;;;24.64;37.44
78488;BME280;67885;49.758;9.582;2023-09-19T12:20:52;99048.56;;;24.64;37.70
78488;BME280;67885;49.758;9.582;2023-09-19T12:23:20;99047.06;;;24.68;37.74
78488;BME280;67885;49.758;9.582;2023-09-19T12:25:48;99041.25;;;24.64;38.32
78488;BME280;67885;49.758;9.582;2023-09-19T12:28:17;99055.38;;;24.73;37.85
78488;BME280;67885;49.758;9.582;2023-09-19T12:30:47;99047.28;;;24.66;36.57
78488;BME280;67885;49.758;9.582;2023-09-19T12:33:16;99047.31;;;24.60;37.75
78488;BME280;67885;49.758;9.582;2023-09-19T12:35:45;99039.59;;;24.56;38.17
78488;BME280;67885;49.758;9.582;2023-09-19T12:38:22;99048.78;;;24.55;37.25
78488;BME280;67885;49.758;9.582;2023-09-19T12:40:51;99041.94;;;24.53;36.82
78488;BME280;67885;49.758;9.582;2023-09-19T12:43:19;99036.94;;;24.50;36.56
78488;BME280;67885;49.758;9.582;2023-09-19T12:45:46;99029.44;;;24.52;37.63
78488;BME280;67885;49.758;9.582;2023-09-19T12:48:20;99017.97;;;24.50;38.77
78488;BME280;67885;49.758;9.582;2023-09-19T12:51:02;99029.78;;;24.69;38.35
78488;BME280;67885;49.758;9.582;2023-09-19T12:53:32;99031.59;;;24.75;37.12
78488;BME280;67885;49.758;9.582;2023-09-19T12:56:03;99035.06;;;24.82;36.64
78488;BME280;67885;49.758;9.582;2023-09-19T12:58:32;99019.03;;;24.81;36.42
78488;BME280;67885;49.758;9.582;2023-09-19T13:01:00;99030.22;;;24.91;36.37
78488;BME280;67885;49.758;9.582;2023-09-19T13:03:29;99027.47;;;24.98;37.08
78488;BME280;67885;49.758;9.582;2023-09-19T13:05:58;99023.72;;;24.99;35.89
78488;BME280;67885;49.758;9.582;2023-09-19T13:08:27;99029.94;;;24.99;36.28
78488;BME280;67885;49.758;9.582;2023-09-19T13:11:02;99018.88;;;25.01;35.01
78488;BME280;67885;49.758;9.582;2023-09-19T13:13:32;99025.56;;;24.98;35.17
78488;BME280;67885;49.758;9.582;2023-09-19T13:16:01;99015.63;;;24.92;36.38
78488;BME280;67885;49.758;9.582;2023-09-19T13:18:30;99028.44;;;25.03;35.85
78488;BME280;67885;49.758;9.582;2023-09-19T13:21:07;99027.63;;;25.03;35.81
78488;BME280;67885;49.758;9.582;2023-09-19T13:23:35;99028.22;;;25.05;36.60
78488;BME280;67885;49.758;9.582;2023-09-19T13:26:04;99025.69;;;25.10;35.98
78488;BME280;67885;49.758;9.582;2023-09-19T13:28:31;99020.84;;;25.12;36.03